sensor_id;sensor_type;location;lat;lon;timestamp;pressure;altitude;pressure_sealevel;temperature;humidity
19831;BME280;10076;52.008;4.708;2022-12-18T00:01:31;102808.28;;;0.10;100.00
19831;BME280;10076;52.008;4.708;2022-12-18T00:03:58;102808.22;;;-0.09;100.00
19831;BME280;10076;52.008;4.708;2022-12-18T00:06:26;102803.13;;;0.19;100.00
19831;BME280;10076;52.008;4.708;2022-12-18T00:08:51;102796.16;;;0.15;100.00
19831;BME280;10076;52.008;4.708;2022-12-18T00:11:19;102783.25;;;0.29;100.00
19831;BME280;10076;52.008;4.708;2022-12-18T00:13:45;102788.28;;;-0.16;100.00
19831;BME280;10076;52.008;4.708;2022-12-18T00:16:13;102789.97;;;-0.27;100.00
19831;BME280;10076;52.008;4.708;2022-12-18T00:18:39;102793.34;;;-0.43;100.00
19831;BME280;10076;52.008;4.708;2022-12-18T00:21:07;102789.13;;;-0.21;100.00
19831;BME280;10076;52.008;4.708;2022-12-18T00:23:33;102792.59;;;-0.24;100.00
19831;BME280;10076;52.008;4.708;2022-12-18T00:26:05;102798.72;;;-0.07;100.00
19831;BME280;10076;52.008;4.708;2022-12-18T00:28:31;102793.50;;;-0.04;100.00
19831;BME280;10076;52.008;4.708;2022-12-18T00:31:02;102795.16;;;-0.25;100.00
19831;BME280;10076;52.008;4.708;2022-12-18T00:33:27;102785.75;;;0.02;100.00
19831;BME280;10076;52.008;4.708;2022-12-18T00:35:53;102775.44;;;0.24;100.00
19831;BME280;10076;52.008;4.708;2022-12-18T00:38:18;102780.66;;;0.29;100.00
19831;BME280;10076;52.008;4.708;2022-12-18T00:40:43;102784.94;;;0.28;100.00
19831;BME280;10076;52.008;4.708;2022-12-18T00:43:09;102781.41;;;-0.03;100.00
19831;BME280;10076;52.008;4.708;2022-12-18T00:45:34;102794.41;;;-0.01;100.00
19831;BME280;10076;52.008;4.708;2022-12-18T00:47:59;102778.75;;;-0.18;100.00
19831;BME280;10076;52.008;4.708;2022-12-18T00:50:25;102785.78;;;0.14;100.00
19831;BME280;10076;52.008;4.708;2022-12-18T00:52:51;102795.22;;;-0.15;100.00
19831;BME280;10076;52.008;4.708;2022-12-18T00:55:16;102790.81;;;-0.32;100.00
19831;BME280;10076;52.008;4.708;2022-12-18T00:57:42;102806.41;;;-0.23;100.00
19831;BME280;10076;52.008;4.708;2022-12-18T01:00:12;102803.88;;;-0.13;100.00
19831;BME280;10076;52.008;4.708;2022-12-18T01:02:39;102802.19;;;0.01;100.00
19831;BME280;10076;52.008;4.708;2022-12-18T01:05:05;102802.16;;;-0.05;100.00
19831;BME280;10076;52.008;4.708;2022-12-18T01:07:31;102802.22;;;0.04;100.00
19831;BME280;10076;52.008;4.708;2022-12-18T01:09:56;102800.44;;;-0.04;100.00
19831;BME280;10076;52.008;4.708;2022-12-18T01:12:21;102806.53;;;0.08;100.00
19831;BME280;10076;52.008;4.708;2022-12-18T01:14:47;102799.63;;;0.04;100.00
19831;BME280;10076;52.008;4.708;2022-12-18T01:17:12;102804.00;;;0.17;100.00
19831;BME280;10076;52.008;4.708;2022-12-18T01:19:37;102794.41;;;0.01;100.00
19831;BME280;10076;52.008;4.708;2022-12-18T01:22:03;102800.47;;;0.12;100.00
19831;BME280;10076;52.008;4.708;2022-12-18T01:24:28;102797.03;;;0.10;100.00
19831;BME280;10076;52.008;4.708;2022-12-18T01:26:53;102795.31;;;0.24;100.00
19831;BME280;10076;52.008;4.708;2022-12-18T01:29:19;102788.34;;;0.02;100.00
19831;BME280;10076;52.008;4.708;2022-12-18T01:31:44;102797.06;;;0.16;100.00
19831;BME280;10076;52.008;4.708;2022-12-18T01:34:09;102807.41;;;0.04;100.00
19831;BME280;10076;52.008;4.708;2022-12-18T01:36:37;102805.50;;;-0.33;100.00
19831;BME280;10076;52.008;4.708;2022-12-18T01:39:09;102812.50;;;-0.20;100.00
19831;BME280;10076;52.008;4.708;2022-12-18T01:41:35;102814.31;;;0.02;100.00
19831;BME280;10076;52.008;4.708;2022-12-18T01:44:53;102821.97;;;-0.31;100.00
19831;BME280;10076;52.008;4.708;2022-12-18T01:50:18;102824.56;;;-0.28;100.00
19831;BME280;10076;52.008;4.708;2022-12-18T01:52:52;102829.59;;;-0.52;100.00
19831;BME280;10076;52.008;4.708;2022-12-18T01:55:20;102824.38;;;-0.64;100.00
19831;BME280;10076;52.008;4.708;2022-12-18T01:57:47;102828.91;;;-0.28;100.00
19831;BME280;10076;52.008;4.708;2022-12-18T02:00:17;102828.00;;;-0.29;100.00
19831;BME280;10076;52.008;4.708;2022-12-18T02:02:43;102836.56;;;-0.45;100.00
19831;BME280;10076;52.008;4.708;2022-12-18T02:05:10;102831.41;;;-0.39;100.00
19831;BME280;10076;52.008;4.708;2022-12-18T02:10:25;102831.41;;;-0.37;100.00
19831;BME280;10076;52.008;4.708;2022-12-18T02:15:40;102826.97;;;-0.62;100.00
19831;BME280;10076;52.008;4.708;2022-12-18T02:18:14;102834.03;;;-0.39;100.00
19831;BME280;10076;52.008;4.708;2022-12-18T02:20:48;102819.22;;;-0.55;100.00
19831;BME280;10076;52.008;4.708;2022-12-18T02:23:21;102829.66;;;-0.46;100.00
19831;BME280;10076;52.008;4.708;2022-12-18T02:28:41;102822.88;;;-0.17;100.00
19831;BME280;10076;52.008;4.708;2022-12-18T02:31:11;102815.97;;;-0.16;100.00
19831;BME280;10076;52.008;4.708;2022-12-18T02:33:39;102812.50;;;-0.20;100.00
19831;BME280;10076;52.008;4.708;2022-12-18T02:36:05;102822.84;;;-0.26;100.00
19831;BME280;10076;52.008;4.708;2022-12-18T02:38:33;102824.50;;;-0.43;100.00
19831;BME280;10076;52.008;4.708;2022-12-18T02:40:59;102825.44;;;-0.23;100.00
19831;BME280;10076;52.008;4.708;2022-12-18T02:43:25;102823.72;;;-0.24;100.00
19831;BME280;10076;52.008;4.708;2022-12-18T02:45:54;102804.72;;;-0.12;100.00
19831;BME280;10076;52.008;4.708;2022-12-18T02:48:28;102804.72;;;-0.14;100.00
19831;BME280;10076;52.008;4.708;2022-12-18T02:54:13;102798.66;;;-0.17;100.00
19831;BME280;10076;52.008;4.708;2022-12-18T02:56:50;102789.97;;;-0.28;100.00
19831;BME280;10076;52.008;4.708;2022-12-18T02:59:30;102783.94;;;-0.21;100.00
19831;BME280;10076;52.008;4.708;2022-12-18T03:02:07;102779.59;;;-0.25;100.00
19831;BME280;10076;52.008;4.708;2022-12-18T03:04:40;102778.72;;;-0.35;100.00
19831;BME280;10076;52.008;4.708;2022-12-18T03:07:18;102770.97;;;-0.17;100.00
19831;BME280;10076;52.008;4.708;2022-12-18T03:09:48;102770.97;;;-0.17;100.00
19831;BME280;10076;52.008;4.708;2022-12-18T03:12:18;102765.72;;;-0.32;100.00
19831;BME280;10076;52.008;4.708;2022-12-18T03:14:54;102766.59;;;-0.31;100.00
19831;BME280;10076;52.008;4.708;2022-12-18T03:17:25;102760.47;;;-0.48;100.00
19831;BME280;10076;52.008;4.708;2022-12-18T03:19:52;102749.25;;;-0.41;100.00
19831;BME280;10076;52.008;4.708;2022-12-18T03:22:22;102761.34;;;-0.43;100.00
19831;BME280;10076;52.008;4.708;2022-12-18T03:24:48;102763.06;;;-0.47;100.00
19831;BME280;10076;52.008;4.708;2022-12-18T03:27:17;102758.81;;;-0.30;100.00
19831;BME280;10076;52.008;4.708;2022-12-18T03:30:11;102753.59;;;-0.37;100.00
19831;BME280;10076;52.008;4.708;2022-12-18T03:33:04;102756.97;;;-0.55;100.00
19831;BME280;10076;52.008;4.708;2022-12-18T03:35:37;102757.88;;;-0.50;100.00
19831;BME280;10076;52.008;4.708;2022-12-18T03:38:03;102755.31;;;-0.47;100.00
19831;BME280;10076;52.008;4.708;2022-12-18T03:40:45;102751.81;;;-0.47;100.00
19831;BME280;10076;52.008;4.708;2022-12-18T03:46:03;102746.53;;;-0.67;100.00
19831;BME280;10076;52.008;4.708;2022-12-18T03:48:36;102743.06;;;-0.69;100.00
19831;BME280;10076;52.008;4.708;2022-12-18T03:51:52;102733.47;;;-0.87;100.00
19831;BME280;10076;52.008;4.708;2022-12-18T03:53:57;102736.06;;;-0.87;100.00
19831;BME280;10076;52.008;4.708;2022-12-18T03:56:26;102736.03;;;-0.89;100.00
19831;BME280;10076;52.008;4.708;2022-12-18T03:58:54;102732.47;;;-1.06;100.00
19831;BME280;10076;52.008;4.708;2022-12-18T04:01:25;102728.13;;;-1.07;100.00
19831;BME280;10076;52.008;4.708;2022-12-18T04:03:53;102723.78;;;-1.11;100.00
19831;BME280;10076;52.008;4.708;2022-12-18T04:06:20;102719.47;;;-1.15;100.00
19831;BME280;10076;52.008;4.708;2022-12-18T04:08:46;102718.53;;;-1.26;100.00
19831;BME280;10076;52.008;4.708;2022-12-18T04:11:12;102735.81;;;-1.23;100.00
19831;BME280;10076;52.008;4.708;2022-12-18T04:13:38;102735.66;;;-1.42;100.00
19831;BME280;10076;52.008;4.708;2022-12-18T04:16:04;102730.34;;;-1.59;100.00
19831;BME280;10076;52.008;4.708;2022-12-18T04:18:30;102734.81;;;-1.38;100.00
19831;BME280;10076;52.008;4.708;2022-12-18T04:20:55;102742.50;;;-1.53;100.00
19831;BME280;10076;52.008;4.708;2022-12-18T04:23:20;102743.28;;;-1.56;100.00
19831;BME280;10076;52.008;4.708;2022-12-18T04:25:47;102736.31;;;-1.69;100.00
19831;BME280;10076;52.008;4.708;2022-12-18T04:28:12;102742.34;;;-1.67;100.00
19831;BME280;10076;52.008;4.708;2022-12-18T04:30:38;102740.59;;;-1.71;100.00
19831;BME280;10076;52.008;4.708;2022-12-18T04:33:03;102746.56;;;-1.78;100.00
19831;BME280;10076;52.008;4.708;2022-12-18T04:35:28;102742.16;;;-1.88;100.00
19831;BME280;10076;52.008;4.708;2022-12-18T04:37:54;102746.50;;;-1.84;100.00
19831;BME280;10076;52.008;4.708;2022-12-18T04:40:19;102761.13;;;-1.89;100.00
19831;BME280;10076;52.008;4.708;2022-12-18T04:42:44;102746.44;;;-1.90;100.00
19831;BME280;10076;52.008;4.708;2022-12-18T04:45:10;102767.13;;;-1.90;100.00
19831;BME280;10076;52.008;4.708;2022-12-18T04:47:35;102757.47;;;-2.07;100.00
19831;BME280;10076;52.008;4.708;2022-12-18T04:50:00;102759.22;;;-2.05;100.00
19831;BME280;10076;52.008;4.708;2022-12-18T04:52:26;102755.00;;;-1.97;100.00
19831;BME280;10076;52.008;4.708;2022-12-18T04:54:51;102755.84;;;-1.98;100.00
19831;BME280;10076;52.008;4.708;2022-12-18T04:57:16;102761.66;;;-2.18;100.00
19831;BME280;10076;52.008;4.708;2022-12-18T04:59:43;102752.16;;;-2.20;100.00
19831;BME280;10076;52.008;4.708;2022-12-18T05:02:08;102746.91;;;-2.23;100.00
19831;BME280;10076;52.008;4.708;2022-12-18T05:04:34;102745.09;;;-2.33;100.00
19831;BME280;10076;52.008;4.708;2022-12-18T05:06:59;102732.84;;;-2.46;100.00
19831;BME280;10076;52.008;4.708;2022-12-18T05:09:24;102731.94;;;-2.50;100.00
19831;BME280;10076;52.008;4.708;2022-12-18T05:11:49;102739.78;;;-2.44;100.00
19831;BME280;10076;52.008;4.708;2022-12-18T05:14:15;102754.47;;;-2.41;100.00
19831;BME280;10076;52.008;4.708;2022-12-18T05:16:40;102757.09;;;-2.38;100.00
19831;BME280;10076;52.008;4.708;2022-12-18T05:19:05;102759.78;;;-2.29;100.00
19831;BME280;10076;52.008;4.708;2022-12-18T05:21:31;102756.34;;;-2.28;100.00
19831;BME280;10076;52.008;4.708;2022-12-18T05:23:56;102751.09;;;-2.37;100.00
19831;BME280;10076;52.008;4.708;2022-12-18T05:26:21;102752.00;;;-2.31;100.00
19831;BME280;10076;52.008;4.708;2022-12-18T05:28:47;102752.91;;;-2.29;100.00
19831;BME280;10076;52.008;4.708;2022-12-18T05:31:12;102754.38;;;-2.47;100.00
19831;BME280;10076;52.008;4.708;2022-12-18T05:33:38;102751.09;;;-2.36;100.00
19831;BME280;10076;52.008;4.708;2022-12-18T05:36:06;102745.09;;;-2.32;100.00
19831;BME280;10076;52.008;4.708;2022-12-18T05:38:33;102739.16;;;-2.23;100.00
19831;BME280;10076;52.008;4.708;2022-12-18T05:40:59;102740.19;;;-2.09;100.00
19831;BME280;10076;52.008;4.708;2022-12-18T05:43:26;102723.66;;;-2.22;100.00
19831;BME280;10076;52.008;4.708;2022-12-18T05:45:52;102731.53;;;-2.11;100.00
19831;BME280;10076;52.008;4.708;2022-12-18T05:48:18;102733.06;;;-2.31;100.00
19831;BME280;10076;52.008;4.708;2022-12-18T05:50:45;102725.31;;;-2.30;100.00
19831;BME280;10076;52.008;4.708;2022-12-18T05:53:11;102726.22;;;-2.23;100.00
19831;BME280;10076;52.008;4.708;2022-12-18T05:55:38;102727.00;;;-2.33;100.00
19831;BME280;10076;52.008;4.708;2022-12-18T05:58:05;102722.66;;;-2.34;100.00
19831;BME280;10076;52.008;4.708;2022-12-18T06:00:32;102728.72;;;-2.32;100.00
19831;BME280;10076;52.008;4.708;2022-12-18T06:02:58;102732.91;;;-2.43;100.00
19831;BME280;10076;52.008;4.708;2022-12-18T06:05:24;102737.03;;;-2.59;100.00
19831;BME280;10076;52.008;4.708;2022-12-18T06:07:49;102731.03;;;-2.53;100.00
19831;BME280;10076;52.008;4.708;2022-12-18T06:10:14;102725.72;;;-2.65;100.00
19831;BME280;10076;52.008;4.708;2022-12-18T06:12:40;102722.25;;;-2.67;100.00
19831;BME280;10076;52.008;4.708;2022-12-18T06:15:06;102704.84;;;-2.80;100.00
19831;BME280;10076;52.008;4.708;2022-12-18T06:17:31;102721.25;;;-2.78;100.00
19831;BME280;10076;52.008;4.708;2022-12-18T06:19:57;102723.84;;;-2.78;100.00
19831;BME280;10076;52.008;4.708;2022-12-18T06:22:23;102705.78;;;-2.74;100.00
19831;BME280;10076;52.008;4.708;2022-12-18T06:24:48;102703.16;;;-2.78;100.00
19831;BME280;10076;52.008;4.708;2022-12-18T06:27:14;102695.38;;;-2.79;100.00
19831;BME280;10076;52.008;4.708;2022-12-18T06:29:39;102692.84;;;-2.75;100.00
19831;BME280;10076;52.008;4.708;2022-12-18T06:32:04;102690.28;;;-2.75;100.00
19831;BME280;10076;52.008;4.708;2022-12-18T06:34:31;102704.69;;;-2.92;100.00
19831;BME280;10076;52.008;4.708;2022-12-18T06:36:57;102708.97;;;-2.94;100.00
19831;BME280;10076;52.008;4.708;2022-12-18T06:39:22;102699.53;;;-2.92;100.00
19831;BME280;10076;52.008;4.708;2022-12-18T06:41:48;102680.75;;;-2.77;100.00
19831;BME280;10076;52.008;4.708;2022-12-18T06:44:13;102689.97;;;-2.97;100.00
19831;BME280;10076;52.008;4.708;2022-12-18T06:46:38;102682.41;;;-2.84;100.00
19831;BME280;10076;52.008;4.708;2022-12-18T06:49:04;102683.41;;;-2.73;100.00
19831;BME280;10076;52.008;4.708;2022-12-18T06:51:29;102678.94;;;-2.86;100.00
19831;BME280;10076;52.008;4.708;2022-12-18T06:53:55;102682.25;;;-2.96;100.00
19831;BME280;10076;52.008;4.708;2022-12-18T06:56:20;102672.69;;;-3.00;100.00
19831;BME280;10076;52.008;4.708;2022-12-18T06:58:46;102678.69;;;-3.04;100.00
19831;BME280;10076;52.008;4.708;2022-12-18T07:01:11;102681.19;;;-3.10;100.00
19831;BME280;10076;52.008;4.708;2022-12-18T07:03:38;102675.19;;;-3.07;100.00
19831;BME280;10076;52.008;4.708;2022-12-18T07:06:04;102668.59;;;-2.84;100.00
19831;BME280;10076;52.008;4.708;2022-12-18T07:08:30;102659.16;;;-2.82;100.00
19831;BME280;10076;52.008;4.708;2022-12-18T07:10:56;102658.94;;;-2.99;100.00
19831;BME280;10076;52.008;4.708;2022-12-18T07:13:22;102657.25;;;-2.98;100.00
19831;BME280;10076;52.008;4.708;2022-12-18T07:15:47;102659.88;;;-2.94;100.00
19831;BME280;10076;52.008;4.708;2022-12-18T07:18:12;102655.53;;;-2.98;100.00
19831;BME280;10076;52.008;4.708;2022-12-18T07:20:38;102643.28;;;-3.11;100.00
19831;BME280;10076;52.008;4.708;2022-12-18T07:23:04;102634.63;;;-3.14;100.00
19831;BME280;10076;52.008;4.708;2022-12-18T07:25:33;102627.69;;;-3.17;100.00
19831;BME280;10076;52.008;4.708;2022-12-18T07:27:59;102615.59;;;-3.22;100.00
19831;BME280;10076;52.008;4.708;2022-12-18T07:30:24;102611.34;;;-3.17;100.00
19831;BME280;10076;52.008;4.708;2022-12-18T07:32:49;102601.09;;;-3.13;100.00
19831;BME280;10076;52.008;4.708;2022-12-18T07:35:15;102601.31;;;-2.95;100.00
19831;BME280;10076;52.008;4.708;2022-12-18T07:37:40;102586.59;;;-3.00;100.00
19831;BME280;10076;52.008;4.708;2022-12-18T07:40:06;102583.94;;;-3.05;100.00
19831;BME280;10076;52.008;4.708;2022-12-18T07:42:32;102570.09;;;-3.11;100.00
19831;BME280;10076;52.008;4.708;2022-12-18T07:45:00;102586.50;;;-3.09;100.00
19831;BME280;10076;52.008;4.708;2022-12-18T07:47:27;102590.47;;;-3.34;100.00
19831;BME280;10076;52.008;4.708;2022-12-18T07:49:53;102597.69;;;-3.09;100.00
19831;BME280;10076;52.008;4.708;2022-12-18T07:52:18;102605.44;;;-3.07;100.00
19831;BME280;10076;52.008;4.708;2022-12-18T07:54:44;102606.34;;;-3.07;100.00
19831;BME280;10076;52.008;4.708;2022-12-18T07:57:09;102605.53;;;-3.01;100.00
19831;BME280;10076;52.008;4.708;2022-12-18T07:59:35;102604.66;;;-3.02;100.00
19831;BME280;10076;52.008;4.708;2022-12-18T08:02:00;102608.03;;;-3.09;100.00
19831;BME280;10076;52.008;4.708;2022-12-18T08:04:26;102613.34;;;-2.95;100.00
19831;BME280;10076;52.008;4.708;2022-12-18T08:06:51;102607.19;;;-3.05;100.00
19831;BME280;10076;52.008;4.708;2022-12-18T08:09:17;102617.59;;;-2.99;100.00
19831;BME280;10076;52.008;4.708;2022-12-18T08:11:42;102604.75;;;-2.93;100.00
19831;BME280;10076;52.008;4.708;2022-12-18T08:14:08;102601.56;;;-2.73;100.00
19831;BME280;10076;52.008;4.708;2022-12-18T08:16:33;102597.31;;;-2.68;100.00
19831;BME280;10076;52.008;4.708;2022-12-18T08:18:59;102589.84;;;-2.38;100.00
19831;BME280;10076;52.008;4.708;2022-12-18T08:21:27;102585.19;;;-2.74;100.00
19831;BME280;10076;52.008;4.708;2022-12-18T08:23:54;102584.53;;;-2.54;100.00
19831;BME280;10076;52.008;4.708;2022-12-18T08:26:20;102583.81;;;-2.40;100.00
19831;BME280;10076;52.008;4.708;2022-12-18T08:28:46;102584.69;;;-2.39;100.00
19831;BME280;10076;52.008;4.708;2022-12-18T08:31:11;102595.03;;;-2.36;100.00
19831;BME280;10076;52.008;4.708;2022-12-18T08:33:37;102571.97;;;-2.14;100.00
19831;BME280;10076;52.008;4.708;2022-12-18T08:36:04;102571.97;;;-2.12;100.00
19831;BME280;10076;52.008;4.708;2022-12-18T08:38:29;102576.34;;;-2.04;100.00
19831;BME280;10076;52.008;4.708;2022-12-18T08:41:02;102581.38;;;-2.26;100.00
19831;BME280;10076;52.008;4.708;2022-12-18T08:43:28;102590.03;;;-2.21;100.00
19831;BME280;10076;52.008;4.708;2022-12-18T08:46:16;102602.31;;;-1.97;100.00
19831;BME280;10076;52.008;4.708;2022-12-18T08:48:42;102612.69;;;-1.97;100.00
19831;BME280;10076;52.008;4.708;2022-12-18T08:51:08;102617.00;;;-1.91;100.00
19831;BME280;10076;52.008;4.708;2022-12-18T08:53:35;102620.50;;;-1.86;100.00
19831;BME280;10076;52.008;4.708;2022-12-18T08:56:00;102626.63;;;-1.80;100.00
19831;BME280;10076;52.008;4.708;2022-12-18T08:58:25;102631.00;;;-1.68;100.00
19831;BME280;10076;52.008;4.708;2022-12-18T09:00:51;102626.81;;;-1.54;100.00
19831;BME280;10076;52.008;4.708;2022-12-18T09:03:17;102626.81;;;-1.51;100.00
19831;BME280;10076;52.008;4.708;2022-12-18T09:05:45;102629.47;;;-1.38;100.00
19831;BME280;10076;52.008;4.708;2022-12-18T09:08:10;102621.78;;;-1.29;100.00
19831;BME280;10076;52.008;4.708;2022-12-18T09:10:42;102623.56;;;-1.19;100.00
19831;BME280;10076;52.008;4.708;2022-12-18T09:13:07;102613.25;;;-1.07;100.00
19831;BME280;10076;52.008;4.708;2022-12-18T09:15:32;102616.78;;;-0.93;100.00
19831;BME280;10076;52.008;4.708;2022-12-18T09:17:58;102603.88;;;-0.74;100.00
19831;BME280;10076;52.008;4.708;2022-12-18T09:20:23;102604.75;;;-0.76;100.00
19831;BME280;10076;52.008;4.708;2022-12-18T09:22:49;102608.16;;;-0.83;100.00
19831;BME280;10076;52.008;4.708;2022-12-18T09:25:14;102584.03;;;-0.62;100.00
19831;BME280;10076;52.008;4.708;2022-12-18T09:27:40;102580.59;;;-0.55;100.00
19831;BME280;10076;52.008;4.708;2022-12-18T09:30:06;102571.97;;;-0.49;100.00
19831;BME280;10076;52.008;4.708;2022-12-18T09:32:31;102572.84;;;-0.43;100.00
19831;BME280;10076;52.008;4.708;2022-12-18T09:34:56;102572.84;;;-0.38;100.00
19831;BME280;10076;52.008;4.708;2022-12-18T09:37:22;102571.97;;;-0.39;100.00
19831;BME280;10076;52.008;4.708;2022-12-18T09:39:47;102578.03;;;-0.28;100.00
19831;BME280;10076;52.008;4.708;2022-12-18T09:42:22;102587.53;;;-0.27;100.00
19831;BME280;10076;52.008;4.708;2022-12-18T09:44:53;102587.56;;;-0.12;100.00
19831;BME280;10076;52.008;4.708;2022-12-18T09:47:32;102575.47;;;-0.13;100.00
19831;BME280;10076;52.008;4.708;2022-12-18T09:50:04;102580.63;;;-0.04;100.00
19831;BME280;10076;52.008;4.708;2022-12-18T09:52:41;102583.22;;;0.03;100.00
19831;BME280;10076;52.008;4.708;2022-12-18T09:55:31;102591.03;;;0.02;100.00
19831;BME280;10076;52.008;4.708;2022-12-18T09:58:06;102597.94;;;0.03;100.00
19831;BME280;10076;52.008;4.708;2022-12-18T10:00:36;102589.28;;;0.20;100.00
19831;BME280;10076;52.008;4.708;2022-12-18T10:03:10;102584.09;;;0.10;100.00
19831;BME280;10076;52.008;4.708;2022-12-18T10:10:50;102571.97;;;0.18;100.00
19831;BME280;10076;52.008;4.708;2022-12-18T10:13:31;102570.25;;;0.20;100.00
19831;BME280;10076;52.008;4.708;2022-12-18T10:16:08;102554.59;;;0.41;100.00
19831;BME280;10076;52.008;4.708;2022-12-18T10:24:48;102529.41;;;0.77;100.00
19831;BME280;10076;52.008;4.708;2022-12-18T10:27:18;102528.44;;;0.90;100.00
19831;BME280;10076;52.008;4.708;2022-12-18T10:29:46;102531.97;;;0.78;100.00
19831;BME280;10076;52.008;4.708;2022-12-18T10:32:26;102528.47;;;0.87;100.00
19831;BME280;10076;52.008;4.708;2022-12-18T10:34:55;102535.34;;;0.98;100.00
19831;BME280;10076;52.008;4.708;2022-12-18T10:37:24;102518.94;;;0.89;100.00
19831;BME280;10076;52.008;4.708;2022-12-18T10:40:11;102509.41;;;0.89;100.00
19831;BME280;10076;52.008;4.708;2022-12-18T10:42:37;102515.44;;;0.97;100.00
19831;BME280;10076;52.008;4.708;2022-12-18T10:45:16;102513.59;;;1.13;100.00
19831;BME280;10076;52.008;4.708;2022-12-18T10:47:52;102513.69;;;1.01;100.00
19831;BME280;10076;52.008;4.708;2022-12-18T10:50:30;102512.81;;;1.00;100.00
19831;BME280;10076;52.008;4.708;2022-12-18T10:52:58;102514.47;;;1.10;100.00
19831;BME280;10076;52.008;4.708;2022-12-18T10:55:33;102518.00;;;1.05;100.00
19831;BME280;10076;52.008;4.708;2022-12-18T10:58:24;102528.34;;;1.12;100.00
19831;BME280;10076;52.008;4.708;2022-12-18T11:01:15;102522.22;;;1.21;100.00
19831;BME280;10076;52.008;4.708;2022-12-18T11:03:44;102503.75;;;1.61;100.00
19831;BME280;10076;52.008;4.708;2022-12-18T11:06:13;102515.97;;;1.51;100.00
19831;BME280;10076;52.008;4.708;2022-12-18T11:08:41;102510.78;;;1.45;100.00
19831;BME280;10076;52.008;4.708;2022-12-18T11:11:21;102505.63;;;1.44;100.00
19831;BME280;10076;52.008;4.708;2022-12-18T11:14:00;102493.44;;;1.49;100.00
19831;BME280;10076;52.008;4.708;2022-12-18T11:16:27;102502.03;;;1.58;100.00
19831;BME280;10076;52.008;4.708;2022-12-18T11:18:53;102507.03;;;1.81;100.00
19831;BME280;10076;52.008;4.708;2022-12-18T11:21:18;102497.34;;;1.99;100.00
19831;BME280;10076;52.008;4.708;2022-12-18T11:23:53;102507.97;;;1.75;100.00
19831;BME280;10076;52.008;4.708;2022-12-18T11:26:19;102508.81;;;1.79;100.00
19831;BME280;10076;52.008;4.708;2022-12-18T11:29:08;102504.44;;;1.81;100.00
19831;BME280;10076;52.008;4.708;2022-12-18T11:31:34;102499.97;;;1.92;100.00
19831;BME280;10076;52.008;4.708;2022-12-18T11:34:04;102492.13;;;1.99;100.00
19831;BME280;10076;52.008;4.708;2022-12-18T11:36:40;102484.97;;;2.17;100.00
19831;BME280;10076;52.008;4.708;2022-12-18T11:39:24;102480.66;;;2.16;100.00
19831;BME280;10076;52.008;4.708;2022-12-18T11:41:57;102485.88;;;2.15;100.00
19831;BME280;10076;52.008;4.708;2022-12-18T11:44:47;102472.03;;;2.08;100.00
19831;BME280;10076;52.008;4.708;2022-12-18T11:47:22;102463.97;;;2.31;100.00
19831;BME280;10076;52.008;4.708;2022-12-18T11:49:51;102454.28;;;2.43;100.00
19831;BME280;10076;52.008;4.708;2022-12-18T11:52:32;102441.53;;;2.21;100.00
19831;BME280;10076;52.008;4.708;2022-12-18T11:55:04;102430.28;;;2.17;100.00
19831;BME280;10076;52.008;4.708;2022-12-18T12:00:21;102416.38;;;2.15;100.00
19831;BME280;10076;52.008;4.708;2022-12-18T12:03:37;102427.53;;;2.26;100.00
19831;BME280;10076;52.008;4.708;2022-12-18T12:11:48;102401.50;;;2.25;100.00
19831;BME280;10076;52.008;4.708;2022-12-18T12:14:29;102390.03;;;2.42;100.00
19831;BME280;10076;52.008;4.708;2022-12-18T12:17:47;102377.94;;;2.35;100.00
19831;BME280;10076;52.008;4.708;2022-12-18T12:22:55;102386.56;;;2.40;100.00
19831;BME280;10076;52.008;4.708;2022-12-18T12:31:23;102381.38;;;2.37;100.00
19831;BME280;10076;52.008;4.708;2022-12-18T12:34:08;102376.38;;;2.21;100.00
19831;BME280;10076;52.008;4.708;2022-12-18T12:39:15;102372.94;;;2.17;100.00
19831;BME280;10076;52.008;4.708;2022-12-18T12:41:45;102375.66;;;2.10;100.00
19831;BME280;10076;52.008;4.708;2022-12-18T12:44:45;102371.19;;;2.19;100.00
19831;BME280;10076;52.008;4.708;2022-12-18T12:47:16;102374.75;;;2.12;100.00
19831;BME280;10076;52.008;4.708;2022-12-18T12:49:44;102373.97;;;2.04;100.00
19831;BME280;10076;52.008;4.708;2022-12-18T12:52:15;102362.75;;;2.00;100.00
19831;BME280;10076;52.008;4.708;2022-12-18T12:54:43;102352.22;;;2.10;100.00
19831;BME280;10076;52.008;4.708;2022-12-18T13:02:39;102362.47;;;2.20;100.00
19831;BME280;10076;52.008;4.708;2022-12-18T13:08:02;102355.28;;;2.40;100.00
19831;BME280;10076;52.008;4.708;2022-12-18T13:10:38;102344.09;;;2.32;100.00
19831;BME280;10076;52.008;4.708;2022-12-18T13:13:15;102346.81;;;2.23;100.00
19831;BME280;10076;52.008;4.708;2022-12-18T13:15:47;102348.41;;;2.33;100.00
19831;BME280;10076;52.008;4.708;2022-12-18T13:18:24;102339.84;;;2.27;100.00
19831;BME280;10076;52.008;4.708;2022-12-18T13:26:00;102332.00;;;2.27;100.00
19831;BME280;10076;52.008;4.708;2022-12-18T13:31:10;102322.28;;;2.39;100.00
19831;BME280;10076;52.008;4.708;2022-12-18T13:33:43;102307.63;;;2.31;100.00
19831;BME280;10076;52.008;4.708;2022-12-18T13:38:47;102303.47;;;2.16;100.00
19831;BME280;10076;52.008;4.708;2022-12-18T13:43:45;102297.19;;;2.34;100.00
19831;BME280;10076;52.008;4.708;2022-12-18T13:46:18;102296.44;;;2.23;100.00
19831;BME280;10076;52.008;4.708;2022-12-18T13:51:22;102281.28;;;2.50;100.00
19831;BME280;10076;52.008;4.708;2022-12-18T13:53:50;102277.75;;;2.54;100.00
19831;BME280;10076;52.008;4.708;2022-12-18T13:56:29;102276.22;;;2.40;100.00
19831;BME280;10076;52.008;4.708;2022-12-18T13:59:23;102271.06;;;2.37;100.00
19831;BME280;10076;52.008;4.708;2022-12-18T14:04:31;102256.28;;;2.37;100.00
19831;BME280;10076;52.008;4.708;2022-12-18T14:07:11;102255.22;;;2.50;100.00
19831;BME280;10076;52.008;4.708;2022-12-18T14:09:41;102249.38;;;2.33;100.00